createdAt,value
2022-11-27T00:00:13.403Z,4.60
2022-11-27T00:02:59.636Z,4.60
2022-11-27T00:05:40.282Z,4.60
2022-11-27T00:08:12.164Z,4.60
2022-11-27T00:10:41.259Z,4.60
2022-11-27T00:13:11.139Z,4.60
2022-11-27T00:15:45.274Z,4.60
2022-11-27T00:18:14.895Z,4.60
2022-11-27T00:20:44.666Z,4.60
2022-11-27T00:23:15.944Z,4.50
2022-11-27T00:25:51.699Z,4.40
2022-11-27T00:28:22.585Z,4.40
2022-11-27T00:30:50.946Z,4.30
2022-11-27T00:33:20.367Z,4.30
2022-11-27T00:35:47.649Z,4.20
2022-11-27T00:38:24.811Z,4.20
2022-11-27T00:40:54.206Z,4.10
2022-11-27T00:43:22.426Z,4.10
2022-11-27T00:45:51.093Z,4.00
2022-11-27T00:48:22.258Z,4.00
2022-11-27T00:50:50.495Z,4.10
2022-11-27T00:53:21.318Z,4.00
2022-11-27T00:55:49.576Z,4.00
2022-11-27T00:58:19.321Z,3.90
2022-11-27T01:00:47.675Z,3.80
2022-11-27T01:03:17.094Z,3.80
2022-11-27T01:08:12.549Z,3.70
2022-11-27T01:10:51.975Z,3.70
2022-11-27T01:13:26.703Z,3.70
2022-11-27T01:16:00.964Z,3.60
2022-11-27T01:18:32.804Z,3.60
2022-11-27T01:21:02.777Z,3.60
2022-11-27T01:23:32.768Z,3.60
2022-11-27T01:26:02.247Z,3.60
2022-11-27T01:28:33.590Z,3.50
2022-11-27T01:31:06.675Z,3.40
2022-11-27T01:33:35.345Z,3.40
2022-11-27T01:36:10.420Z,3.30
2022-11-27T01:38:39.977Z,3.30
2022-11-27T01:41:10.674Z,3.30
2022-11-27T01:43:58.249Z,3.30
2022-11-27T01:46:47.293Z,3.20
2022-11-27T01:49:34.173Z,3.10
2022-11-27T01:52:06.675Z,3.10
2022-11-27T01:54:40.036Z,3.20
2022-11-27T01:57:14.769Z,3.20
2022-11-27T01:59:46.809Z,3.30
2022-11-27T02:02:15.243Z,3.30
2022-11-27T02:04:45.368Z,3.40
2022-11-27T02:07:13.927Z,3.40
2022-11-27T02:09:43.567Z,3.40
2022-11-27T02:12:25.336Z,3.40
2022-11-27T02:15:04.835Z,3.40
2022-11-27T02:17:44.836Z,3.50
2022-11-27T02:20:39.264Z,3.60
2022-11-27T02:23:48.624Z,3.50
2022-11-27T02:26:54.576Z,3.50
2022-11-27T02:29:28.393Z,3.50
2022-11-27T02:32:00.274Z,3.50
2022-11-27T02:34:35.709Z,3.50
2022-11-27T02:37:10.253Z,3.40
2022-11-27T02:39:43.858Z,3.40
2022-11-27T02:42:19.937Z,3.30
2022-11-27T02:44:56.487Z,3.30
2022-11-27T02:47:24.974Z,3.30
2022-11-27T02:49:57.219Z,3.30
2022-11-27T02:52:27.901Z,3.30
2022-11-27T02:55:00.085Z,3.30
2022-11-27T02:57:29.695Z,3.30
2022-11-27T03:00:04.809Z,3.20
2022-11-27T03:02:36.723Z,3.20
2022-11-27T03:05:12.239Z,3.20
2022-11-27T03:07:44.131Z,3.20
2022-11-27T03:10:19.475Z,3.10
2022-11-27T03:12:48.429Z,3.10
2022-11-27T03:15:19.663Z,3.00
2022-11-27T03:17:54.075Z,2.90
2022-11-27T03:20:26.878Z,2.90
2022-11-27T03:22:56.974Z,2.80
2022-11-27T03:25:25.627Z,2.70
2022-11-27T03:27:59.495Z,2.70
2022-11-27T03:30:29.208Z,2.60
2022-11-27T03:32:57.622Z,2.60
2022-11-27T03:35:28.319Z,2.60
2022-11-27T03:37:56.908Z,2.60
2022-11-27T03:40:31.611Z,2.50
2022-11-27T03:43:08.178Z,2.60
2022-11-27T03:45:50.695Z,2.50
2022-11-27T03:48:26.907Z,2.40
2022-11-27T03:51:05.436Z,2.30
2022-11-27T03:53:44.109Z,2.30
2022-11-27T03:56:35.200Z,2.40
2022-11-27T03:59:09.822Z,2.20
2022-11-27T04:01:40.614Z,2.20
2022-11-27T04:04:10.307Z,2.10
2022-11-27T04:06:38.920Z,2.10
2022-11-27T04:09:08.748Z,2.00
2022-11-27T04:11:37.008Z,2.00
2022-11-27T04:14:05.277Z,2.10
2022-11-27T04:16:35.227Z,2.00
2022-11-27T04:19:09.410Z,2.00
2022-11-27T04:21:37.747Z,2.00
2022-11-27T04:24:06.231Z,2.10
2022-11-27T04:26:34.415Z,2.00
2022-11-27T04:29:04.315Z,1.90
2022-11-27T04:31:32.580Z,1.90
2022-11-27T04:34:06.712Z,1.80
2022-11-27T04:36:39.440Z,1.80
2022-11-27T04:39:11.416Z,1.80
2022-11-27T04:41:39.961Z,1.80
2022-11-27T04:44:08.211Z,1.80
2022-11-27T04:46:36.558Z,1.70
2022-11-27T04:49:05.691Z,1.60
2022-11-27T04:51:42.525Z,1.60
2022-11-27T04:54:17.906Z,1.50
2022-11-27T04:56:47.411Z,1.50
2022-11-27T04:59:15.674Z,1.40
2022-11-27T05:01:43.998Z,1.20
2022-11-27T05:04:15.664Z,1.00
2022-11-27T05:06:45.339Z,0.90
2022-11-27T05:09:15.087Z,1.00
2022-11-27T05:11:51.244Z,1.00
2022-11-27T05:14:22.704Z,0.90
2022-11-27T05:16:55.086Z,0.90
2022-11-27T05:19:28.594Z,0.80
2022-11-27T05:22:03.075Z,0.80
2022-11-27T05:24:33.248Z,0.80
2022-11-27T05:27:05.667Z,0.80
2022-11-27T05:29:35.840Z,0.80
2022-11-27T05:32:05.422Z,0.80
2022-11-27T05:34:34.189Z,0.80
2022-11-27T05:37:04.658Z,0.80
2022-11-27T05:39:33.351Z,0.80
2022-11-27T05:42:02.917Z,0.80
2022-11-27T05:44:31.243Z,0.80
2022-11-27T05:47:02.246Z,0.80
2022-11-27T05:49:34.201Z,0.80
2022-11-27T05:52:07.963Z,0.70
2022-11-27T05:54:38.151Z,0.60
2022-11-27T05:57:07.921Z,0.60
2022-11-27T05:59:43.226Z,0.60
2022-11-27T06:02:16.442Z,0.60
2022-11-27T06:04:48.647Z,0.50
2022-11-27T06:07:19.945Z,0.50
2022-11-27T06:09:58.134Z,0.50
2022-11-27T06:15:22.862Z,0.50
2022-11-27T06:17:53.317Z,0.50
2022-11-27T06:20:23.915Z,0.40
2022-11-27T06:22:54.023Z,0.50
2022-11-27T06:25:22.484Z,0.50
2022-11-27T06:27:52.080Z,0.60
2022-11-27T06:30:20.858Z,0.50
2022-11-27T06:32:51.782Z,0.60
2022-11-27T06:35:20.266Z,0.60
2022-11-27T06:37:49.192Z,0.50
2022-11-27T06:40:27.187Z,0.50
2022-11-27T06:43:07.884Z,0.50
2022-11-27T06:45:54.159Z,0.60
2022-11-27T06:48:23.640Z,0.60
2022-11-27T06:50:51.924Z,0.60
2022-11-27T06:53:23.192Z,0.60
2022-11-27T06:55:59.744Z,0.70
2022-11-27T06:58:33.093Z,0.70
2022-11-27T07:01:06.093Z,0.80
2022-11-27T07:03:36.051Z,0.80
2022-11-27T07:06:09.004Z,0.90
2022-11-27T07:08:38.054Z,0.90
2022-11-27T07:11:11.671Z,0.90
2022-11-27T07:13:40.625Z,1.00
2022-11-27T07:16:18.110Z,1.00
2022-11-27T07:18:47.850Z,1.00
2022-11-27T07:21:18.537Z,1.10
2022-11-27T07:23:47.177Z,1.20
2022-11-27T07:26:20.115Z,1.20
2022-11-27T07:28:49.190Z,1.20
2022-11-27T07:31:20.936Z,1.20
2022-11-27T07:33:49.485Z,1.20
2022-11-27T07:36:21.045Z,1.20
2022-11-27T07:38:51.052Z,1.40
2022-11-27T07:41:19.246Z,1.80
2022-11-27T07:43:48.348Z,2.70
2022-11-27T07:46:18.664Z,3.60
2022-11-27T07:48:47.495Z,4.40
2022-11-27T07:51:20.168Z,4.60
2022-11-27T07:53:51.840Z,4.40
2022-11-27T07:56:20.823Z,4.70
2022-11-27T07:58:51.142Z,5.10
2022-11-27T08:01:22.523Z,5.80
2022-11-27T08:03:51.075Z,6.80
2022-11-27T08:06:22.392Z,6.90
2022-11-27T08:08:52.960Z,7.80
2022-11-27T08:11:28.092Z,8.60
2022-11-27T08:13:59.320Z,6.90
2022-11-27T08:16:30.942Z,4.90
2022-11-27T08:19:00.447Z,4.10
2022-11-27T08:21:32.157Z,3.80
2022-11-27T08:24:01.380Z,3.60
2022-11-27T08:26:29.744Z,3.60
2022-11-27T08:28:59.799Z,3.50
2022-11-27T08:31:30.597Z,3.60
2022-11-27T08:34:21.547Z,3.60
2022-11-27T08:36:58.065Z,3.70
2022-11-27T08:39:27.649Z,3.60
2022-11-27T08:41:59.707Z,3.50
2022-11-27T08:44:55.431Z,3.50
2022-11-27T08:47:40.522Z,3.50
2022-11-27T08:50:16.333Z,3.40
2022-11-27T08:52:49.608Z,3.50
2022-11-27T08:55:19.062Z,3.50
2022-11-27T08:57:49.796Z,3.60
2022-11-27T09:00:23.617Z,3.90
2022-11-27T09:02:58.297Z,4.10
2022-11-27T09:05:30.281Z,4.40
2022-11-27T09:08:49.346Z,4.40
2022-11-27T09:11:22.207Z,4.20
2022-11-27T09:13:51.472Z,4.20
2022-11-27T09:16:27.252Z,4.20
2022-11-27T09:18:55.863Z,4.30
2022-11-27T09:21:28.317Z,4.20
2022-11-27T09:23:59.709Z,4.40
2022-11-27T09:26:30.319Z,4.40
2022-11-27T09:29:00.365Z,4.30
2022-11-27T09:31:29.666Z,4.40
2022-11-27T09:34:02.066Z,4.50
2022-11-27T09:36:32.521Z,4.60
2022-11-27T09:39:05.359Z,4.70
2022-11-27T09:41:47.465Z,4.80
2022-11-27T09:44:31.842Z,5.10
2022-11-27T09:47:08.222Z,5.10
2022-11-27T09:49:44.665Z,5.00
2022-11-27T09:52:31.983Z,5.20
2022-11-27T09:55:06.162Z,5.50
2022-11-27T09:57:40.126Z,5.50
2022-11-27T10:00:15.154Z,5.50
2022-11-27T10:02:47.393Z,5.80
2022-11-27T10:05:33.020Z,5.80
2022-11-27T10:11:31.910Z,6.00
2022-11-27T10:14:49.039Z,6.20
2022-11-27T10:17:50.915Z,6.30
2022-11-27T10:20:56.536Z,6.30
2022-11-27T10:23:44.429Z,6.40
2022-11-27T10:29:33.334Z,6.30
2022-11-27T10:32:26.739Z,6.30
2022-11-27T10:37:55.180Z,6.50
2022-11-27T10:40:30.694Z,6.60
2022-11-27T10:43:11.521Z,6.70
2022-11-27T10:45:50.306Z,6.70
2022-11-27T10:48:19.438Z,6.60
2022-11-27T10:50:50.360Z,6.60
2022-11-27T10:53:28.255Z,6.80
2022-11-27T10:56:21.044Z,6.70
2022-11-27T10:58:56.282Z,6.80
2022-11-27T11:01:31.098Z,6.80
2022-11-27T11:04:36.237Z,6.90
2022-11-27T11:07:11.942Z,6.70
2022-11-27T11:09:51.533Z,6.70
2022-11-27T11:12:23.726Z,6.90
2022-11-27T11:14:58.771Z,7.00
2022-11-27T11:17:37.495Z,6.70
2022-11-27T11:20:28.422Z,6.80
2022-11-27T11:23:38.326Z,6.70
2022-11-27T11:33:15.905Z,6.70
2022-11-27T11:35:56.806Z,6.80
2022-11-27T11:38:39.651Z,6.90
2022-11-27T11:41:18.212Z,6.70
2022-11-27T11:43:57.328Z,6.80
2022-11-27T11:46:28.675Z,6.60
2022-11-27T11:49:13.445Z,6.70
2022-11-27T11:58:59.117Z,6.70
2022-11-27T12:01:59.023Z,6.80
2022-11-27T12:05:07.046Z,6.80
2022-11-27T12:08:00.884Z,6.80
2022-11-27T12:10:40.801Z,6.90
2022-11-27T12:13:27.861Z,7.00
2022-11-27T12:16:10.387Z,7.10
2022-11-27T12:19:00.886Z,7.00
2022-11-27T12:22:03.203Z,7.20
2022-11-27T12:25:01.843Z,7.00
2022-11-27T12:27:41.523Z,7.00
2022-11-27T12:30:21.913Z,7.30
2022-11-27T12:33:38.829Z,7.20
2022-11-27T12:36:20.476Z,7.20
2022-11-27T12:45:58.882Z,7.30
2022-11-27T12:48:34.551Z,7.30
2022-11-27T12:51:09.675Z,7.30
2022-11-27T12:53:47.444Z,7.30
2022-11-27T12:56:23.553Z,7.20
2022-11-27T12:58:56.185Z,7.10
2022-11-27T13:01:34.305Z,7.10
2022-11-27T13:04:12.365Z,7.00
2022-11-27T13:06:52.705Z,7.00
2022-11-27T13:09:56.356Z,7.00
2022-11-27T13:12:41.601Z,7.10
2022-11-27T13:15:22.730Z,7.10
2022-11-27T13:18:06.253Z,7.00
2022-11-27T13:20:52.324Z,7.00
2022-11-27T13:23:32.130Z,7.00
2022-11-27T13:26:06.507Z,7.00
2022-11-27T13:28:44.996Z,6.90
2022-11-27T13:31:21.671Z,7.00
2022-11-27T13:33:53.360Z,6.90
2022-11-27T13:36:39.536Z,7.00
2022-11-27T13:39:35.587Z,7.00
2022-11-27T13:48:54.303Z,7.00
2022-11-27T13:51:42.771Z,7.10
2022-11-27T13:54:13.476Z,7.10
2022-11-27T13:56:42.193Z,6.90
2022-11-27T13:59:26.449Z,7.00
2022-11-27T14:01:58.166Z,6.90
2022-11-27T14:04:27.300Z,6.90
2022-11-27T14:07:20.704Z,6.80
2022-11-27T14:09:54.701Z,6.70
2022-11-27T14:12:28.025Z,6.70
2022-11-27T14:15:05.013Z,6.60
2022-11-27T14:17:42.150Z,6.60
2022-11-27T14:20:24.940Z,6.60
2022-11-27T14:23:11.799Z,6.50
2022-11-27T14:26:14.765Z,6.40
2022-11-27T14:29:01.136Z,6.30
2022-11-27T14:31:32.438Z,6.30
2022-11-27T14:34:15.600Z,6.20
2022-11-27T14:36:45.704Z,6.30
2022-11-27T14:39:26.951Z,6.30
2022-11-27T14:42:08.070Z,6.30
2022-11-27T14:44:54.056Z,6.30
2022-11-27T14:47:30.851Z,6.30
2022-11-27T14:50:04.152Z,6.30
2022-11-27T14:52:37.296Z,6.20
2022-11-27T14:55:14.982Z,6.10
2022-11-27T14:57:46.930Z,6.10
2022-11-27T15:00:38.123Z,6.10
2022-11-27T15:03:12.567Z,6.00
2022-11-27T15:05:41.400Z,5.90
2022-11-27T15:08:20.542Z,5.90
2022-11-27T15:11:35.837Z,5.80
2022-11-27T15:14:20.463Z,5.80
2022-11-27T15:17:03.053Z,5.70
2022-11-27T15:19:43.061Z,5.80
2022-11-27T15:22:24.653Z,5.90
2022-11-27T15:25:03.070Z,5.80
2022-11-27T15:27:34.331Z,5.80
2022-11-27T15:30:18.863Z,5.90
2022-11-27T15:32:55.521Z,5.90
2022-11-27T15:35:35.887Z,5.80
2022-11-27T15:38:49.412Z,5.90
2022-11-27T15:41:46.429Z,5.80
2022-11-27T15:47:04.823Z,5.80
2022-11-27T15:49:36.058Z,5.80
2022-11-27T15:52:41.281Z,5.90
2022-11-27T15:59:06.116Z,5.90
2022-11-27T16:01:56.831Z,5.90
2022-11-27T16:04:48.594Z,5.90
2022-11-27T16:07:57.382Z,5.90
2022-11-27T16:14:03.992Z,5.90
2022-11-27T16:16:35.363Z,5.80
2022-11-27T16:19:07.028Z,5.70
2022-11-27T16:21:39.261Z,5.70
2022-11-27T16:24:10.067Z,5.70
2022-11-27T16:26:39.933Z,5.70
2022-11-27T16:29:10.997Z,5.70
2022-11-27T16:31:46.431Z,5.70
2022-11-27T16:34:21.854Z,5.70
2022-11-27T16:36:58.650Z,5.70
2022-11-27T16:39:27.698Z,5.70
2022-11-27T16:41:56.396Z,5.60
2022-11-27T16:44:24.814Z,5.70
2022-11-27T16:46:54.912Z,5.60
2022-11-27T16:49:25.675Z,5.60
2022-11-27T16:51:58.400Z,5.70
2022-11-27T16:54:27.190Z,5.60
2022-11-27T16:57:07.152Z,5.60
2022-11-27T16:59:51.421Z,5.50
2022-11-27T17:02:39.338Z,5.50
2022-11-27T17:05:27.418Z,5.40
2022-11-27T17:08:00.381Z,5.40
2022-11-27T17:10:31.715Z,5.40
2022-11-27T17:13:01.864Z,5.50
2022-11-27T17:16:06.958Z,5.40
2022-11-27T17:18:54.978Z,5.50
2022-11-27T17:21:28.329Z,5.50
2022-11-27T17:24:03.932Z,5.40
2022-11-27T17:26:44.030Z,5.40
2022-11-27T17:29:14.913Z,5.40
2022-11-27T17:31:46.707Z,5.40
2022-11-27T17:34:18.727Z,5.30
2022-11-27T17:36:53.423Z,5.20
2022-11-27T17:39:27.657Z,5.10
2022-11-27T17:42:22.429Z,5.10
2022-11-27T17:44:58.364Z,5.10
2022-11-27T17:47:34.110Z,5.10
2022-11-27T17:50:12.612Z,5.00
2022-11-27T17:52:41.032Z,5.00
2022-11-27T17:55:10.342Z,5.00
2022-11-27T17:57:48.349Z,5.00
2022-11-27T18:00:28.977Z,5.00
2022-11-27T18:03:07.152Z,5.00
2022-11-27T18:05:39.741Z,4.80
2022-11-27T18:08:10.627Z,4.90
2022-11-27T18:10:40.314Z,4.90
2022-11-27T18:13:08.621Z,4.80
2022-11-27T18:15:43.785Z,4.80
2022-11-27T18:18:14.703Z,4.80
2022-11-27T18:20:54.251Z,4.80
2022-11-27T18:23:24.520Z,4.90
2022-11-27T18:28:51.476Z,4.90
2022-11-27T18:31:24.038Z,4.80
2022-11-27T18:33:52.686Z,4.80
2022-11-27T18:36:22.753Z,4.80
2022-11-27T18:38:56.095Z,4.90
2022-11-27T18:41:28.241Z,4.90
2022-11-27T18:44:01.893Z,4.90
2022-11-27T18:46:45.646Z,5.00
2022-11-27T18:49:35.059Z,4.90
2022-11-27T18:52:14.538Z,4.90
2022-11-27T18:54:44.731Z,4.90
2022-11-27T18:57:13.557Z,4.80
2022-11-27T18:59:45.070Z,4.80
2022-11-27T19:02:16.640Z,4.80
2022-11-27T19:04:46.836Z,4.80
2022-11-27T19:07:18.224Z,4.80
2022-11-27T19:09:49.672Z,4.80
2022-11-27T19:12:19.641Z,4.80
2022-11-27T19:14:49.478Z,4.80
2022-11-27T19:17:24.717Z,4.80
2022-11-27T19:19:57.402Z,4.80
2022-11-27T19:22:32.595Z,4.70
2022-11-27T19:25:03.884Z,4.80
2022-11-27T19:27:38.554Z,4.80
2022-11-27T19:30:11.810Z,4.90
2022-11-27T19:32:45.436Z,4.90
2022-11-27T19:35:16.295Z,4.80
2022-11-27T19:37:51.208Z,4.80
2022-11-27T19:40:33.534Z,4.80
2022-11-27T19:43:06.790Z,4.80
2022-11-27T19:45:39.102Z,4.80
2022-11-27T19:48:10.373Z,4.80
2022-11-27T19:50:41.448Z,4.70
2022-11-27T19:53:12.156Z,4.70
2022-11-27T19:55:42.018Z,4.80
2022-11-27T19:58:12.570Z,4.80
2022-11-27T20:00:40.922Z,4.80
2022-11-27T20:03:09.264Z,4.80
2022-11-27T20:05:39.040Z,4.80
2022-11-27T20:08:07.335Z,4.80
2022-11-27T20:10:38.413Z,4.90
2022-11-27T20:13:10.147Z,4.90
2022-11-27T20:15:42.402Z,4.80
2022-11-27T20:18:11.788Z,4.80
2022-11-27T20:20:41.526Z,4.80
2022-11-27T20:23:14.686Z,4.90
2022-11-27T20:25:49.525Z,4.80
2022-11-27T20:28:21.976Z,4.80
2022-11-27T20:30:58.285Z,4.80
2022-11-27T20:33:27.591Z,4.80
2022-11-27T20:35:58.111Z,4.80
2022-11-27T20:38:28.237Z,4.80
2022-11-27T20:41:09.849Z,4.80
2022-11-27T20:43:40.456Z,4.80
2022-11-27T20:46:12.488Z,4.80
2022-11-27T20:48:41.143Z,4.80
2022-11-27T20:51:16.582Z,4.80
2022-11-27T20:53:47.234Z,4.80
2022-11-27T20:56:20.724Z,4.80
2022-11-27T20:58:50.246Z,4.90
2022-11-27T21:01:27.552Z,4.90
2022-11-27T21:03:58.682Z,4.80
2022-11-27T21:06:31.739Z,4.80
2022-11-27T21:09:05.044Z,4.80
2022-11-27T21:11:35.355Z,4.80
2022-11-27T21:14:06.914Z,4.90
2022-11-27T21:16:39.671Z,4.90
2022-11-27T21:19:22.055Z,4.90
2022-11-27T21:21:59.215Z,4.90
2022-11-27T21:24:29.721Z,4.90
2022-11-27T21:27:06.781Z,4.90
2022-11-27T21:29:43.676Z,4.90
2022-11-27T21:32:18.106Z,4.90
2022-11-27T21:34:48.821Z,4.90
2022-11-27T21:37:17.400Z,4.90
2022-11-27T21:39:46.826Z,4.80
2022-11-27T21:42:21.380Z,4.80
2022-11-27T21:44:54.832Z,4.80
2022-11-27T21:47:26.730Z,4.80
2022-11-27T21:49:56.385Z,4.80
2022-11-27T21:52:24.571Z,4.80
2022-11-27T21:54:59.234Z,4.80
2022-11-27T21:57:31.458Z,4.80
2022-11-27T22:00:02.349Z,4.80
2022-11-27T22:02:34.388Z,4.80
2022-11-27T22:05:05.777Z,4.80
2022-11-27T22:07:40.770Z,4.80
2022-11-27T22:10:11.895Z,4.80
2022-11-27T22:12:48.240Z,4.70
2022-11-27T22:15:17.308Z,4.80
2022-11-27T22:17:54.855Z,4.80
2022-11-27T22:20:25.602Z,4.80
2022-11-27T22:22:56.477Z,4.80
2022-11-27T22:25:30.220Z,4.70
2022-11-27T22:28:13.243Z,4.80
2022-11-27T22:30:46.597Z,4.70
2022-11-27T22:33:15.813Z,4.70
2022-11-27T22:35:48.128Z,4.70
2022-11-27T22:38:29.201Z,4.80
2022-11-27T22:41:09.878Z,4.80
2022-11-27T22:43:41.404Z,4.80
2022-11-27T22:46:16.452Z,4.80
2022-11-27T22:48:45.330Z,4.80
2022-11-27T22:51:21.857Z,4.90
2022-11-27T22:53:53.603Z,4.90
2022-11-27T22:56:46.847Z,4.90
2022-11-27T22:59:43.783Z,4.80
2022-11-27T23:02:16.961Z,4.70
2022-11-27T23:04:46.692Z,4.70
2022-11-27T23:07:24.814Z,4.70
2022-11-27T23:09:55.360Z,4.70
2022-11-27T23:12:30.748Z,4.70
2022-11-27T23:15:00.430Z,4.70
2022-11-27T23:18:09.826Z,4.70
2022-11-27T23:21:07.423Z,4.70
2022-11-27T23:24:03.726Z,4.80
2022-11-27T23:26:33.690Z,4.80
2022-11-27T23:29:03.299Z,4.80
2022-11-27T23:31:37.800Z,4.70
2022-11-27T23:34:10.356Z,4.70
2022-11-27T23:36:42.250Z,4.60
2022-11-27T23:39:12.997Z,4.70
2022-11-27T23:41:52.248Z,4.60
2022-11-27T23:44:24.333Z,4.70
2022-11-27T23:46:57.351Z,4.70
2022-11-27T23:49:27.288Z,4.60
2022-11-27T23:51:59.513Z,4.60
2022-11-27T23:54:28.515Z,4.60
2022-11-27T23:56:57.388Z,4.60
2022-11-27T23:59:28.960Z,4.60
